createdAt,value
2023-04-27T00:01:50.378Z,102133.56
2023-04-27T00:07:11.770Z,102129.19
2023-04-27T00:12:15.908Z,102139.50
2023-04-27T00:17:19.808Z,102134.28
2023-04-27T00:22:22.572Z,102136.91
2023-04-27T00:27:27.723Z,102123.91
2023-04-27T00:32:46.522Z,102117.75
2023-04-27T00:37:52.320Z,102123.72
2023-04-27T00:42:56.576Z,102121.97
2023-04-27T00:48:00.754Z,102124.50
2023-04-27T00:53:03.604Z,102127.91
2023-04-27T00:58:23.015Z,102126.91
2023-04-27T01:03:26.533Z,102128.63
2023-04-27T01:08:29.681Z,102117.25
2023-04-27T01:13:33.799Z,102125.81
2023-04-27T01:18:40.569Z,102135.22
2023-04-27T01:23:56.684Z,102124.84
2023-04-27T01:28:59.571Z,102111.09
2023-04-27T01:34:05.019Z,102115.22
2023-04-27T01:39:09.936Z,102099.59
2023-04-27T01:44:13.006Z,102105.56
2023-04-27T01:49:31.509Z,102094.28
2023-04-27T01:54:36.162Z,102095.13
2023-04-27T01:59:39.061Z,102080.44
2023-04-27T02:04:43.421Z,102084.69
2023-04-27T02:09:47.823Z,102078.59
2023-04-27T02:15:07.835Z,102082.91
2023-04-27T02:20:12.419Z,102085.47
2023-04-27T02:25:16.657Z,102085.41
2023-04-27T02:30:19.606Z,102074.19
2023-04-27T02:35:23.057Z,102074.16
2023-04-27T02:40:42.888Z,102062.03
2023-04-27T02:45:45.685Z,102068.72
2023-04-27T02:50:48.611Z,102079.03
2023-04-27T02:55:52.747Z,102076.47
2023-04-27T03:00:56.998Z,102082.53
2023-04-27T03:06:15.899Z,102081.47
2023-04-27T03:11:20.039Z,102084.13
2023-04-27T03:16:22.891Z,102101.38
2023-04-27T03:21:26.809Z,102084.97
2023-04-27T03:26:31.027Z,102097.06
2023-04-27T03:31:54.145Z,102096.16
2023-04-27T03:36:57.742Z,102088.38
2023-04-27T03:42:02.465Z,102074.56
2023-04-27T03:47:09.117Z,102078.81
2023-04-27T03:52:14.156Z,102086.69
2023-04-27T03:57:27.756Z,102084.94
2023-04-27T04:02:31.122Z,102089.16
2023-04-27T04:07:34.859Z,102086.59
2023-04-27T04:12:39.230Z,102083.13
2023-04-27T04:17:42.166Z,102089.13
2023-04-27T04:23:00.555Z,102096.03
2023-04-27T04:28:04.991Z,102100.31
2023-04-27T04:33:08.765Z,102111.56
2023-04-27T04:38:12.195Z,102108.09
2023-04-27T04:43:17.064Z,102109.97
2023-04-27T04:48:35.944Z,102118.63
2023-04-27T04:53:38.964Z,102120.41
2023-04-27T04:58:43.203Z,102110.16
2023-04-27T05:03:46.199Z,102111.13
2023-04-27T05:08:49.249Z,102098.28
2023-04-27T05:14:12.376Z,102100.09
2023-04-27T05:19:18.246Z,102108.06
2023-04-27T05:24:21.080Z,102114.25
2023-04-27T05:29:25.267Z,102111.91
2023-04-27T05:34:29.096Z,102115.44
2023-04-27T05:39:45.762Z,102113.88
2023-04-27T05:44:49.982Z,102118.34
2023-04-27T05:49:53.164Z,102112.50
2023-04-27T05:54:56.748Z,102115.28
2023-04-27T06:00:01.573Z,102121.63
2023-04-27T06:05:21.474Z,102109.00
2023-04-27T06:10:24.471Z,102111.13
2023-04-27T06:15:28.809Z,102114.81
2023-04-27T06:20:31.734Z,102122.00
2023-04-27T06:25:35.703Z,102125.94
2023-04-27T06:30:58.593Z,102123.34
2023-04-27T06:36:02.368Z,102118.19
2023-04-27T06:41:05.782Z,102128.75
2023-04-27T06:46:10.071Z,102113.34
2023-04-27T06:51:18.916Z,102117.88
2023-04-27T06:56:30.754Z,102112.38
2023-04-27T07:01:34.978Z,102107.31
2023-04-27T07:06:37.921Z,102116.03
2023-04-27T07:11:40.785Z,102117.00
2023-04-27T07:16:45.177Z,102119.59
2023-04-27T07:22:06.650Z,102126.56
2023-04-27T07:27:10.261Z,102127.41
2023-04-27T07:32:15.042Z,102129.06
2023-04-27T07:37:18.629Z,102136.88
2023-04-27T07:42:22.460Z,102131.47
2023-04-27T07:47:44.062Z,102130.59
2023-04-27T07:52:46.959Z,102131.34
2023-04-27T07:57:49.791Z,102139.13
2023-04-27T08:02:55.762Z,102125.13
2023-04-27T08:07:59.493Z,102135.63
2023-04-27T08:13:17.322Z,102126.50
2023-04-27T08:18:21.668Z,102126.75
2023-04-27T08:23:27.901Z,102128.56
2023-04-27T08:28:30.845Z,102128.25
2023-04-27T08:33:35.177Z,102130.00
2023-04-27T08:38:51.738Z,102132.59
2023-04-27T08:43:54.579Z,102126.53
2023-04-27T08:49:06.209Z,102122.03
2023-04-27T08:54:09.390Z,102128.13
2023-04-27T08:59:17.837Z,102121.19
2023-04-27T09:04:22.692Z,102126.63
2023-04-27T09:09:25.998Z,102120.69
2023-04-27T09:14:28.779Z,102112.88
2023-04-27T09:19:33.144Z,102107.13
2023-04-27T09:24:36.333Z,102104.13
2023-04-27T09:29:40.015Z,102095.13
2023-04-27T09:34:44.328Z,102095.09
2023-04-27T09:39:48.224Z,102089.59
2023-04-27T09:44:51.490Z,102091.50
2023-04-27T09:49:55.846Z,102089.94
2023-04-27T09:54:59.161Z,102089.88
2023-04-27T10:00:11.145Z,102093.00
2023-04-27T10:05:30.650Z,102094.06
2023-04-27T10:10:43.663Z,102096.91
2023-04-27T10:15:46.599Z,102097.38
2023-04-27T10:20:52.747Z,102091.91
2023-04-27T10:25:55.910Z,102093.22
2023-04-27T10:30:59.181Z,102095.28
2023-04-27T10:36:04.254Z,102095.81
2023-04-27T10:41:14.984Z,102093.38
2023-04-27T10:46:18.079Z,102086.59
2023-04-27T10:51:22.328Z,102082.34
2023-04-27T10:56:25.178Z,102081.31
2023-04-27T11:01:29.469Z,102078.88
2023-04-27T11:06:34.400Z,102076.75
2023-04-27T11:11:37.298Z,102065.81
2023-04-27T11:16:47.569Z,102065.38
2023-04-27T11:21:51.779Z,102058.38
2023-04-27T11:26:54.611Z,102060.81
2023-04-27T11:31:57.690Z,102055.78
2023-04-27T11:37:17.486Z,102050.78
2023-04-27T11:42:22.522Z,102060.03
2023-04-27T11:47:27.711Z,102046.09
2023-04-27T11:52:32.907Z,102041.19
2023-04-27T11:57:37.145Z,102041.03
2023-04-27T12:02:40.151Z,102041.03
2023-04-27T12:07:44.404Z,102035.50
2023-04-27T12:12:47.267Z,102045.63
2023-04-27T12:17:50.242Z,102032.53
2023-04-27T12:22:55.286Z,102031.91
2023-04-27T12:27:58.185Z,102027.03
2023-04-27T12:33:02.504Z,102034.13
2023-04-27T12:38:07.124Z,102028.28
2023-04-27T12:43:10.475Z,102031.53
2023-04-27T12:48:14.710Z,102029.19
2023-04-27T12:53:19.818Z,102026.53
2023-04-27T12:58:22.804Z,102017.53
2023-04-27T13:03:25.907Z,102009.66
2023-04-27T13:08:30.202Z,102006.97
2023-04-27T13:13:33.032Z,101998.81
2023-04-27T13:18:35.902Z,102004.13
2023-04-27T13:23:40.094Z,102006.44
2023-04-27T13:28:42.930Z,102002.91
2023-04-27T13:33:46.201Z,101993.03
2023-04-27T13:38:50.894Z,101989.22
2023-04-27T13:43:53.730Z,101985.75
2023-04-27T13:48:57.106Z,101982.13
2023-04-27T13:54:01.670Z,101980.34
2023-04-27T13:59:04.572Z,101970.59
2023-04-27T14:04:07.842Z,101972.47
2023-04-27T14:09:12.814Z,101957.25
2023-04-27T14:14:15.993Z,101955.44
2023-04-27T14:19:20.562Z,101948.44
2023-04-27T14:24:24.997Z,101938.78
2023-04-27T14:29:27.838Z,101940.84
2023-04-27T14:34:30.759Z,101927.91
2023-04-27T14:39:35.000Z,101926.41
2023-04-27T14:44:37.961Z,101917.88
2023-04-27T14:49:40.808Z,101923.25
2023-04-27T14:54:46.528Z,101912.06
2023-04-27T14:59:49.406Z,101910.34
2023-04-27T15:04:52.320Z,101906.25
2023-04-27T15:09:56.957Z,101906.38
2023-04-27T15:14:59.827Z,101893.00
2023-04-27T15:20:02.631Z,101894.31
2023-04-27T15:25:08.444Z,101883.28
2023-04-27T15:30:12.115Z,101891.47
2023-04-27T15:35:15.206Z,101877.69
2023-04-27T15:40:19.836Z,101875.19
2023-04-27T15:45:23.105Z,101867.84
2023-04-27T15:50:26.638Z,101858.78
2023-04-27T15:55:31.660Z,101855.22
2023-04-27T16:00:35.302Z,101856.50
2023-04-27T16:05:38.344Z,101861.28
2023-04-27T16:10:42.611Z,101851.69
2023-04-27T16:15:45.865Z,101833.03
2023-04-27T16:20:48.785Z,101845.53
2023-04-27T16:25:53.296Z,101824.56
2023-04-27T16:30:56.111Z,101812.13
2023-04-27T16:35:58.995Z,101808.50
2023-04-27T16:41:03.344Z,101800.47
2023-04-27T16:46:08.366Z,101791.78
2023-04-27T16:51:11.714Z,101785.22
2023-04-27T16:56:16.136Z,101790.38
2023-04-27T17:01:19.041Z,101794.72
2023-04-27T17:06:21.930Z,101782.81
2023-04-27T17:11:26.517Z,101782.06
2023-04-27T17:16:30.196Z,101792.25
2023-04-27T17:21:33.363Z,101788.66
2023-04-27T17:26:39.059Z,101776.78
2023-04-27T17:31:42.150Z,101780.41
2023-04-27T17:36:45.146Z,101774.19
2023-04-27T17:41:49.486Z,101773.44
2023-04-27T17:46:53.090Z,101775.53
2023-04-27T17:51:56.368Z,101767.19
2023-04-27T17:57:00.646Z,101761.25
2023-04-27T18:02:04.092Z,101776.84
2023-04-27T18:07:07.024Z,101764.97
2023-04-27T18:12:11.669Z,101756.31
2023-04-27T18:17:14.477Z,101756.28
2023-04-27T18:22:17.304Z,101752.59
2023-04-27T18:27:21.542Z,101749.13
2023-04-27T18:32:24.523Z,101743.16
2023-04-27T18:37:27.860Z,101733.91
2023-04-27T18:42:32.236Z,101730.00
2023-04-27T18:47:35.079Z,101734.28
2023-04-27T18:52:38.095Z,101739.31
2023-04-27T18:57:42.343Z,101738.00
2023-04-27T19:02:45.476Z,101735.72
2023-04-27T19:08:10.343Z,101729.31
2023-04-27T19:13:14.631Z,101725.66
2023-04-27T19:18:17.478Z,101721.41
2023-04-27T19:23:20.507Z,101731.06
2023-04-27T19:28:24.846Z,101732.16
2023-04-27T19:33:27.831Z,101735.03
2023-04-27T19:38:30.955Z,101736.88
2023-04-27T19:43:35.269Z,101740.38
2023-04-27T19:48:38.175Z,101729.91
2023-04-27T19:53:41.194Z,101736.25
2023-04-27T19:58:45.323Z,101726.66
2023-04-27T20:03:48.354Z,101723.75
2023-04-27T20:08:51.360Z,101717.69
2023-04-27T20:13:55.570Z,101711.88
2023-04-27T20:18:58.480Z,101704.91
2023-04-27T20:24:01.322Z,101700.47
2023-04-27T20:29:05.495Z,101687.41
2023-04-27T20:34:30.611Z,101683.81
2023-04-27T20:39:34.899Z,101672.06
2023-04-27T20:44:39.244Z,101657.16
2023-04-27T20:49:42.276Z,101655.47
2023-04-27T20:54:45.247Z,101642.41
2023-04-27T20:59:49.523Z,101652.91
2023-04-27T21:04:53.007Z,101647.75
2023-04-27T21:09:55.924Z,101650.53
2023-04-27T21:15:00.507Z,101647.94
2023-04-27T21:20:03.317Z,101634.06
2023-04-27T21:25:06.749Z,101636.69
2023-04-27T21:30:12.180Z,101616.59
2023-04-27T21:35:15.038Z,101612.34
2023-04-27T21:40:17.943Z,101614.75
2023-04-27T21:45:22.583Z,101602.66
2023-04-27T21:50:25.770Z,101592.31
2023-04-27T21:55:28.655Z,101587.00
2023-04-27T22:00:33.400Z,101577.50
2023-04-27T22:05:37.096Z,101568.13
2023-04-27T22:10:40.024Z,101565.66
2023-04-27T22:15:44.415Z,101567.53
2023-04-27T22:20:47.276Z,101572.31
2023-04-27T22:25:50.118Z,101559.00
2023-04-27T22:30:54.404Z,101552.03
2023-04-27T22:35:58.556Z,101540.94
2023-04-27T22:41:01.342Z,101545.22
2023-04-27T22:46:05.623Z,101545.66
2023-04-27T22:51:09.628Z,101544.34
2023-04-27T22:56:12.480Z,101533.13
2023-04-27T23:01:16.752Z,101507.25
2023-04-27T23:06:19.738Z,101513.19
2023-04-27T23:11:23.740Z,101504.66
2023-04-27T23:16:29.952Z,101494.28
2023-04-27T23:21:32.878Z,101492.56
2023-04-27T23:26:35.868Z,101477.53
2023-04-27T23:31:40.128Z,101461.22
2023-04-27T23:36:43.662Z,101456.09
2023-04-27T23:41:46.456Z,101457.53
2023-04-27T23:46:50.711Z,101456.03
2023-04-27T23:51:53.568Z,101455.13
2023-04-27T23:56:56.424Z,101455.16
